West Point, Iowa
Current Conditions -  °F | °C
As of 2:35 AM on Friday 31 Oct 2014 (Local Time) from KFSW Reporting Station
Overcast Overcast  
Wind Chill: 10°   Ceiling: 5000
Heat Index: 10°   Visibility: 10mi
Dew Point:   Wind: 13mph
Humidity: 71%   Direction: 340°NNW
Pressure: 30.17"   Gusts: 23mph
Location:  40.72°N, 91.45°W
Report Text: KFSW 310735Z AUTO 34011G20KT 10SM SCT039 OVC050 10/05 A3017 RMK AO2
Loading
Personal Weather Stations






























Interactive Weather Map
Tropical Storm Tracking
New forecast layout! Learn more

10-Day Weather Forecast

Advertisements
Track Severe Weather on mobile